createdAt,value
2022-09-13T00:01:41.575Z,95.70
2022-09-13T00:04:08.391Z,95.70
2022-09-13T00:06:35.093Z,95.70
2022-09-13T00:09:01.686Z,95.70
2022-09-13T00:11:28.222Z,95.80
2022-09-13T00:13:54.753Z,95.80
2022-09-13T00:16:21.352Z,95.80
2022-09-13T00:18:48.170Z,96.00
2022-09-13T00:21:14.801Z,95.80
2022-09-13T00:23:41.647Z,95.80
2022-09-13T00:26:08.286Z,95.90
2022-09-13T00:28:34.859Z,95.80
2022-09-13T00:31:01.706Z,96.00
2022-09-13T00:33:28.432Z,95.80
2022-09-13T00:35:55.025Z,95.90
2022-09-13T00:38:21.608Z,95.90
2022-09-13T00:40:48.291Z,95.90
2022-09-13T00:43:14.797Z,95.90
2022-09-13T00:45:41.432Z,95.70
2022-09-13T00:48:08.058Z,96.00
2022-09-13T00:50:34.622Z,96.10
2022-09-13T00:53:01.178Z,95.90
2022-09-13T00:55:27.709Z,95.90
2022-09-13T00:57:54.215Z,96.10
2022-09-13T01:00:20.824Z,96.10
2022-09-13T01:02:47.540Z,96.10
2022-09-13T01:05:14.090Z,96.10
2022-09-13T01:07:41.792Z,96.20
2022-09-13T01:10:08.422Z,96.30
2022-09-13T01:12:35.291Z,96.40
2022-09-13T01:15:01.847Z,96.40
2022-09-13T01:17:28.462Z,96.50
2022-09-13T01:19:54.975Z,96.50
2022-09-13T01:22:21.571Z,96.40
2022-09-13T01:24:48.122Z,96.40
2022-09-13T01:27:14.682Z,96.40
2022-09-13T01:29:41.255Z,96.30
2022-09-13T01:32:07.875Z,96.40
2022-09-13T01:34:34.430Z,96.20
2022-09-13T01:37:01.065Z,96.30
2022-09-13T01:39:27.694Z,96.30
2022-09-13T01:41:54.625Z,96.40
2022-09-13T01:44:21.406Z,96.40
2022-09-13T01:46:47.945Z,96.50
2022-09-13T01:49:14.761Z,96.40
2022-09-13T01:51:41.883Z,96.50
2022-09-13T01:54:08.536Z,96.70
2022-09-13T01:56:35.065Z,96.40
2022-09-13T01:59:01.672Z,96.50
2022-09-13T02:01:28.334Z,96.50
2022-09-13T02:03:55.670Z,96.60
2022-09-13T02:06:22.317Z,96.60
2022-09-13T02:08:49.193Z,96.60
2022-09-13T02:11:17.083Z,96.60
2022-09-13T02:13:43.652Z,96.80
2022-09-13T02:16:10.238Z,96.80
2022-09-13T02:18:36.895Z,96.80
2022-09-13T02:21:03.410Z,96.90
2022-09-13T02:23:31.399Z,96.90
2022-09-13T02:25:57.945Z,96.80
2022-09-13T02:28:24.472Z,96.80
2022-09-13T02:30:51.541Z,96.80
2022-09-13T02:33:18.066Z,97.00
2022-09-13T02:35:44.598Z,97.00
2022-09-13T02:38:11.171Z,97.10
2022-09-13T02:40:37.686Z,97.20
2022-09-13T02:43:04.242Z,97.20
2022-09-13T02:45:31.217Z,97.20
2022-09-13T02:47:57.984Z,97.20
2022-09-13T02:50:24.992Z,97.20
2022-09-13T02:52:53.050Z,97.10
2022-09-13T02:55:21.570Z,97.20
2022-09-13T02:57:48.117Z,97.10
2022-09-13T03:00:14.657Z,97.10
2022-09-13T03:02:41.350Z,97.20
2022-09-13T03:05:07.886Z,97.20
2022-09-13T03:07:34.447Z,97.30
2022-09-13T03:10:01.291Z,97.30
2022-09-13T03:12:29.816Z,97.30
2022-09-13T03:14:56.613Z,97.40
2022-09-13T03:17:23.128Z,97.30
2022-09-13T03:19:49.738Z,97.20
2022-09-13T03:22:16.235Z,97.10
2022-09-13T03:24:42.776Z,97.20
2022-09-13T03:27:09.294Z,97.10
2022-09-13T03:29:35.844Z,97.20
2022-09-13T03:32:02.483Z,97.00
2022-09-13T03:34:29.043Z,97.20
2022-09-13T03:36:55.613Z,97.30
2022-09-13T03:39:22.166Z,97.30
2022-09-13T03:41:48.766Z,97.30
2022-09-13T03:44:15.450Z,97.30
2022-09-13T03:46:42.451Z,97.40
2022-09-13T03:49:12.197Z,97.40
2022-09-13T03:51:38.838Z,97.30
2022-09-13T03:54:05.407Z,97.60
2022-09-13T03:56:31.960Z,97.40
2022-09-13T03:58:58.477Z,97.60
2022-09-13T04:01:25.070Z,97.50
2022-09-13T04:03:56.327Z,97.60
2022-09-13T04:06:23.479Z,97.90
2022-09-13T04:08:50.162Z,98.10
2022-09-13T04:11:16.828Z,98.40
2022-09-13T04:13:43.414Z,98.30
2022-09-13T04:16:09.962Z,98.30
2022-09-13T04:18:36.569Z,98.40
2022-09-13T04:21:04.468Z,98.90
2022-09-13T04:23:31.181Z,99.10
2022-09-13T04:25:57.727Z,99.30
2022-09-13T04:28:24.288Z,98.90
2022-09-13T04:30:50.948Z,99.00
2022-09-13T04:33:17.554Z,99.10
2022-09-13T04:35:44.386Z,99.40
2022-09-13T04:38:11.063Z,99.50
2022-09-13T04:40:37.988Z,99.50
2022-09-13T04:43:04.498Z,99.40
2022-09-13T04:45:31.179Z,99.80
2022-09-13T04:47:57.747Z,99.40
2022-09-13T04:50:24.424Z,99.60
2022-09-13T04:52:51.004Z,99.40
2022-09-13T04:55:17.540Z,99.40
2022-09-13T04:57:44.130Z,99.40
2022-09-13T05:00:10.937Z,99.50
2022-09-13T05:02:37.509Z,99.60
2022-09-13T05:05:04.087Z,99.60
2022-09-13T05:07:30.614Z,99.90
2022-09-13T05:09:57.173Z,99.90
2022-09-13T05:12:23.985Z,99.90
2022-09-13T05:14:50.503Z,99.90
2022-09-13T05:17:17.143Z,99.90
2022-09-13T05:19:43.746Z,99.90
2022-09-13T05:22:10.313Z,99.90
2022-09-13T05:24:36.860Z,99.90
2022-09-13T05:27:03.389Z,99.90
2022-09-13T05:29:29.950Z,99.90
2022-09-13T05:31:56.471Z,99.90
2022-09-13T05:34:23.024Z,99.90
2022-09-13T05:36:54.073Z,99.90
2022-09-13T05:39:36.503Z,99.90
2022-09-13T05:42:08.802Z,99.90
2022-09-13T05:44:35.395Z,99.90
2022-09-13T05:47:01.914Z,99.90
2022-09-13T05:49:28.500Z,99.90
2022-09-13T05:51:55.039Z,99.90
2022-09-13T05:54:21.644Z,99.90
2022-09-13T05:56:48.441Z,99.90
2022-09-13T05:59:15.126Z,99.90
2022-09-13T06:01:42.117Z,99.90
2022-09-13T06:04:08.775Z,99.90
2022-09-13T06:06:35.998Z,99.90
2022-09-13T06:09:02.671Z,99.90
2022-09-13T06:11:29.266Z,99.90
2022-09-13T06:13:55.839Z,99.90
2022-09-13T06:16:22.524Z,99.90
2022-09-13T06:18:49.710Z,99.90
2022-09-13T06:21:17.981Z,99.90
2022-09-13T06:23:44.830Z,99.90
2022-09-13T06:26:11.365Z,99.90
2022-09-13T06:28:37.881Z,99.90
2022-09-13T06:31:04.497Z,99.90
2022-09-13T06:33:31.245Z,99.90
2022-09-13T06:35:57.794Z,99.90
2022-09-13T06:38:24.817Z,99.90
2022-09-13T06:40:51.390Z,99.90
2022-09-13T06:43:17.967Z,99.90
2022-09-13T06:45:44.560Z,99.90
2022-09-13T06:48:11.113Z,99.90
2022-09-13T06:50:37.642Z,99.90
2022-09-13T06:53:04.206Z,99.90
2022-09-13T06:55:30.741Z,99.90
2022-09-13T06:57:57.541Z,99.90
2022-09-13T07:00:24.092Z,99.90
2022-09-13T07:02:50.631Z,99.90
2022-09-13T07:05:18.870Z,99.90
2022-09-13T07:07:45.463Z,99.90
2022-09-13T07:10:12.285Z,99.90
2022-09-13T07:12:39.145Z,99.90
2022-09-13T07:15:05.774Z,99.90
2022-09-13T07:17:32.356Z,99.90
2022-09-13T07:19:58.981Z,99.90
2022-09-13T07:22:27.757Z,99.90
2022-09-13T07:24:54.521Z,99.90
2022-09-13T07:27:21.101Z,99.90
2022-09-13T07:29:47.631Z,99.90
2022-09-13T07:32:14.433Z,99.90
2022-09-13T07:34:41.007Z,99.90
2022-09-13T07:37:07.761Z,99.90
2022-09-13T07:39:34.318Z,99.90
2022-09-13T07:42:00.818Z,99.90
2022-09-13T07:44:27.355Z,99.90
2022-09-13T07:46:53.951Z,99.90
2022-09-13T07:49:20.534Z,99.90
2022-09-13T07:51:47.138Z,99.90
2022-09-13T07:54:13.872Z,99.90
2022-09-13T07:56:41.061Z,99.90
2022-09-13T07:59:07.638Z,99.90
2022-09-13T08:01:34.481Z,99.90
2022-09-13T08:04:01.253Z,99.90
2022-09-13T08:06:27.872Z,99.90
2022-09-13T08:08:54.395Z,99.90
2022-09-13T08:11:21.103Z,99.90
2022-09-13T08:13:48.100Z,99.90
2022-09-13T08:16:14.707Z,99.90
2022-09-13T08:18:41.353Z,99.90
2022-09-13T08:21:07.922Z,99.90
2022-09-13T08:23:34.689Z,99.90
2022-09-13T08:26:01.731Z,99.90
2022-09-13T08:28:28.285Z,99.90
2022-09-13T08:30:54.833Z,99.90
2022-09-13T08:33:21.385Z,99.90
2022-09-13T08:35:47.975Z,99.90
2022-09-13T08:38:14.535Z,99.90
2022-09-13T08:40:41.037Z,99.90
2022-09-13T08:43:07.682Z,99.90
2022-09-13T08:45:34.218Z,99.90
2022-09-13T08:48:00.786Z,99.90
2022-09-13T08:50:27.468Z,99.90
2022-09-13T08:52:53.986Z,99.90
2022-09-13T08:55:20.537Z,99.90
2022-09-13T08:57:47.042Z,99.90
2022-09-13T09:00:16.733Z,99.90
2022-09-13T09:02:45.488Z,99.90
2022-09-13T09:05:12.044Z,99.90
2022-09-13T09:07:38.870Z,99.80
2022-09-13T09:10:05.375Z,99.90
2022-09-13T09:12:32.053Z,99.90
2022-09-13T09:14:58.622Z,99.40
2022-09-13T09:17:25.246Z,99.30
2022-09-13T09:19:53.391Z,98.40
2022-09-13T09:22:21.854Z,98.70
2022-09-13T09:24:48.716Z,98.60
2022-09-13T09:27:15.317Z,97.90
2022-09-13T09:29:44.074Z,97.90
2022-09-13T09:32:10.616Z,98.10
2022-09-13T09:34:42.642Z,97.60
2022-09-13T09:37:09.300Z,97.40
2022-09-13T09:39:39.213Z,96.20
2022-09-13T09:42:05.845Z,96.50
2022-09-13T09:44:33.869Z,96.40
2022-09-13T09:47:00.588Z,96.30
2022-09-13T09:49:46.094Z,95.60
2022-09-13T09:52:12.845Z,96.00
2022-09-13T09:54:41.565Z,96.00
2022-09-13T09:57:08.155Z,95.50
2022-09-13T09:59:34.700Z,95.50
2022-09-13T10:02:01.920Z,95.20
2022-09-13T10:04:29.035Z,94.70
2022-09-13T10:06:55.569Z,95.50
2022-09-13T10:09:22.379Z,95.10
2022-09-13T10:11:49.001Z,94.60
2022-09-13T10:14:16.778Z,94.60
2022-09-13T10:16:43.323Z,94.80
2022-09-13T10:19:11.573Z,94.60
2022-09-13T10:21:38.279Z,94.90
2022-09-13T10:24:05.025Z,94.00
2022-09-13T10:26:31.546Z,94.00
2022-09-13T10:28:58.194Z,94.70
2022-09-13T10:31:24.788Z,94.30
2022-09-13T10:33:51.395Z,94.10
2022-09-13T10:36:29.603Z,93.90
2022-09-13T10:39:04.528Z,93.70
2022-09-13T10:41:31.072Z,93.50
2022-09-13T10:43:57.731Z,93.40
2022-09-13T10:46:24.366Z,93.90
2022-09-13T10:48:57.367Z,93.90
2022-09-13T10:51:23.938Z,93.80
2022-09-13T10:53:50.486Z,94.40
2022-09-13T10:56:16.998Z,93.30
2022-09-13T10:58:43.578Z,93.10
2022-09-13T11:01:10.295Z,93.00
2022-09-13T11:03:37.004Z,93.40
2022-09-13T11:06:03.533Z,93.20
2022-09-13T11:08:30.077Z,92.90
2022-09-13T11:10:56.681Z,93.90
2022-09-13T11:13:23.199Z,92.40
2022-09-13T11:15:49.728Z,92.80
2022-09-13T11:18:16.296Z,93.30
2022-09-13T11:20:42.825Z,92.40
2022-09-13T11:23:09.428Z,92.10
2022-09-13T11:25:36.098Z,92.00
2022-09-13T11:28:02.702Z,93.00
2022-09-13T11:30:30.168Z,92.10
2022-09-13T11:32:57.394Z,92.00
2022-09-13T11:35:23.938Z,92.50
2022-09-13T11:37:50.580Z,92.30
2022-09-13T11:40:17.335Z,92.90
2022-09-13T11:42:43.941Z,92.30
2022-09-13T11:45:10.476Z,92.40
2022-09-13T11:47:37.048Z,91.80
2022-09-13T11:50:03.850Z,92.40
2022-09-13T11:52:30.385Z,91.90
2022-09-13T11:54:57.060Z,91.50
2022-09-13T11:57:23.737Z,91.70
2022-09-13T11:59:50.419Z,91.50
2022-09-13T12:02:17.081Z,91.50
2022-09-13T12:04:43.849Z,90.50
2022-09-13T12:07:10.417Z,88.40
2022-09-13T12:09:37.077Z,90.50
2022-09-13T12:12:04.034Z,90.70
2022-09-13T12:14:30.728Z,90.50
2022-09-13T12:16:57.355Z,90.90
2022-09-13T12:19:23.969Z,89.80
2022-09-13T12:21:50.566Z,87.90
2022-09-13T12:24:17.153Z,88.70
2022-09-13T12:26:45.125Z,89.40
2022-09-13T12:29:11.656Z,86.80
2022-09-13T12:31:38.371Z,87.60
2022-09-13T12:34:05.262Z,88.10
2022-09-13T12:36:31.988Z,85.60
2022-09-13T12:38:59.022Z,87.20
2022-09-13T12:41:25.546Z,86.90
2022-09-13T12:43:52.293Z,83.50
2022-09-13T12:46:18.838Z,84.80
2022-09-13T12:48:45.476Z,86.80
2022-09-13T12:51:12.100Z,86.80
2022-09-13T12:53:38.637Z,85.00
2022-09-13T12:56:05.276Z,84.60
2022-09-13T12:58:31.890Z,84.40
2022-09-13T13:00:58.558Z,84.00
2022-09-13T13:03:25.381Z,83.30
2022-09-13T13:05:51.970Z,83.60
2022-09-13T13:08:18.672Z,82.70
2022-09-13T13:10:45.313Z,83.00
2022-09-13T13:13:11.915Z,83.30
2022-09-13T13:15:38.608Z,82.50
2022-09-13T13:18:05.120Z,84.00
2022-09-13T13:20:31.707Z,84.00
2022-09-13T13:22:58.207Z,83.30
2022-09-13T13:25:24.756Z,84.30
2022-09-13T13:27:54.986Z,84.30
2022-09-13T13:30:21.571Z,84.70
2022-09-13T13:32:48.313Z,84.70
2022-09-13T13:35:14.822Z,83.20
2022-09-13T13:37:41.388Z,84.00
2022-09-13T13:40:07.973Z,83.60
2022-09-13T13:42:38.252Z,85.20
2022-09-13T13:45:04.908Z,84.00
2022-09-13T13:47:32.617Z,85.30
2022-09-13T13:50:00.004Z,84.40
2022-09-13T13:52:26.548Z,84.00
2022-09-13T13:54:58.320Z,85.90
2022-09-13T13:57:25.138Z,87.50
2022-09-13T13:59:51.713Z,89.00
2022-09-13T14:02:18.341Z,87.80
2022-09-13T14:04:44.913Z,89.30
2022-09-13T14:07:19.510Z,89.20
2022-09-13T14:09:46.550Z,90.00
2022-09-13T14:12:13.116Z,90.00
2022-09-13T14:14:39.665Z,90.40
2022-09-13T14:17:06.282Z,90.50
2022-09-13T14:19:32.873Z,90.90
2022-09-13T14:21:59.428Z,90.90
2022-09-13T14:24:26.000Z,91.00
2022-09-13T14:26:52.608Z,89.60
2022-09-13T14:29:19.300Z,90.50
2022-09-13T14:31:45.873Z,90.00
2022-09-13T14:34:12.460Z,90.20
2022-09-13T14:36:39.071Z,90.80
2022-09-13T14:39:05.723Z,90.90
2022-09-13T14:41:32.298Z,90.50
2022-09-13T14:43:58.797Z,90.80
2022-09-13T14:46:25.347Z,90.10
2022-09-13T14:48:52.149Z,90.00
2022-09-13T14:51:18.776Z,90.70
2022-09-13T14:53:45.371Z,90.70
2022-09-13T14:56:11.923Z,90.50
2022-09-13T14:58:38.433Z,90.50
2022-09-13T15:01:05.561Z,90.80
2022-09-13T15:03:32.161Z,90.70
2022-09-13T15:05:58.641Z,90.90
2022-09-13T15:08:25.566Z,91.00
2022-09-13T15:10:52.252Z,91.40
2022-09-13T15:13:18.746Z,91.20
2022-09-13T15:15:45.311Z,91.20
2022-09-13T15:18:11.834Z,91.30
2022-09-13T15:20:38.325Z,91.20
2022-09-13T15:23:04.831Z,91.60
2022-09-13T15:25:31.844Z,91.80
2022-09-13T15:27:58.455Z,92.30
2022-09-13T15:30:24.981Z,92.10
2022-09-13T15:32:51.462Z,92.60
2022-09-13T15:35:18.008Z,92.40
2022-09-13T15:37:44.523Z,93.00
2022-09-13T15:40:11.084Z,92.90
2022-09-13T15:42:37.639Z,92.60
2022-09-13T15:45:04.157Z,92.90
2022-09-13T15:47:30.643Z,92.80
2022-09-13T15:49:58.518Z,93.20
2022-09-13T15:52:25.047Z,93.40
2022-09-13T15:54:51.559Z,93.60
2022-09-13T15:57:18.125Z,93.70
2022-09-13T15:59:44.640Z,93.90
2022-09-13T16:02:11.423Z,94.50
2022-09-13T16:04:38.181Z,94.00
2022-09-13T16:07:04.807Z,94.50
2022-09-13T16:09:31.414Z,94.90
2022-09-13T16:11:58.011Z,95.10
2022-09-13T16:14:24.685Z,95.10
2022-09-13T16:16:52.040Z,95.30
2022-09-13T16:19:18.652Z,95.70
2022-09-13T16:21:45.186Z,95.70
2022-09-13T16:24:11.742Z,95.90
2022-09-13T16:26:38.254Z,96.10
2022-09-13T16:29:04.833Z,96.30
2022-09-13T16:31:31.477Z,96.70
2022-09-13T16:33:58.232Z,97.10
2022-09-13T16:36:25.178Z,97.30
2022-09-13T16:38:51.747Z,97.30
2022-09-13T16:41:18.350Z,97.40
2022-09-13T16:43:44.882Z,97.60
2022-09-13T16:46:11.629Z,98.10
2022-09-13T16:48:38.293Z,98.10
2022-09-13T16:51:04.841Z,98.30
2022-09-13T16:53:31.421Z,98.30
2022-09-13T16:55:58.006Z,98.50
2022-09-13T16:58:24.531Z,98.40
2022-09-13T17:00:51.076Z,98.50
2022-09-13T17:03:17.679Z,98.50
2022-09-13T17:05:44.280Z,98.60
2022-09-13T17:08:10.813Z,98.70
2022-09-13T17:10:37.392Z,98.70
2022-09-13T17:13:05.127Z,98.70
2022-09-13T17:15:31.696Z,98.70
2022-09-13T17:17:58.254Z,98.90
2022-09-13T17:20:24.829Z,99.00
2022-09-13T17:22:51.356Z,98.90
2022-09-13T17:25:20.740Z,99.00
2022-09-13T17:27:47.535Z,99.10
2022-09-13T17:30:14.122Z,99.30
2022-09-13T17:32:40.715Z,99.40
2022-09-13T17:35:08.150Z,99.50
2022-09-13T17:37:34.667Z,99.60
2022-09-13T17:40:01.520Z,99.70
2022-09-13T17:42:28.192Z,99.70
2022-09-13T17:44:54.798Z,99.90
2022-09-13T17:47:21.350Z,99.90
2022-09-13T17:49:47.930Z,99.90
2022-09-13T17:52:14.519Z,99.90
2022-09-13T17:54:41.076Z,99.90
2022-09-13T17:57:07.664Z,99.90
2022-09-13T17:59:34.303Z,99.90
2022-09-13T18:02:01.035Z,99.90
2022-09-13T18:04:27.796Z,99.90
2022-09-13T18:06:54.362Z,99.90
2022-09-13T18:09:20.931Z,99.90
2022-09-13T18:11:47.438Z,99.90
2022-09-13T18:14:13.979Z,99.90
2022-09-13T18:16:40.527Z,99.90
2022-09-13T18:19:07.269Z,99.90
2022-09-13T18:21:34.075Z,99.90
2022-09-13T18:24:01.625Z,99.90
2022-09-13T18:26:28.209Z,99.90
2022-09-13T18:28:55.857Z,99.90
2022-09-13T18:31:22.423Z,99.90
2022-09-13T18:33:49.147Z,99.90
2022-09-13T18:36:16.209Z,99.90
2022-09-13T18:38:42.856Z,99.90
2022-09-13T18:41:09.419Z,99.90
2022-09-13T18:43:36.093Z,99.90
2022-09-13T18:46:04.963Z,99.90
2022-09-13T18:48:32.831Z,99.90
2022-09-13T18:50:59.561Z,99.90
2022-09-13T18:53:34.426Z,99.90
2022-09-13T18:56:01.354Z,99.90
2022-09-13T18:58:28.157Z,99.90
2022-09-13T19:00:54.743Z,99.90
2022-09-13T19:03:21.454Z,99.90
2022-09-13T19:05:48.672Z,99.90
2022-09-13T19:08:15.252Z,99.90
2022-09-13T19:10:41.863Z,99.90
2022-09-13T19:13:08.430Z,99.90
2022-09-13T19:15:35.389Z,99.90
2022-09-13T19:18:02.061Z,99.90
2022-09-13T19:20:28.655Z,99.90
2022-09-13T19:22:55.481Z,99.90
2022-09-13T19:25:22.923Z,99.90
2022-09-13T19:27:49.526Z,99.90
2022-09-13T19:30:16.135Z,99.90
2022-09-13T19:32:42.777Z,99.90
2022-09-13T19:35:09.677Z,99.90
2022-09-13T19:37:36.540Z,99.90
2022-09-13T19:40:04.427Z,99.90
2022-09-13T19:42:31.128Z,99.90
2022-09-13T19:44:57.706Z,99.90
2022-09-13T19:50:11.130Z,99.90
2022-09-13T19:52:38.196Z,99.90
2022-09-13T19:55:04.729Z,99.90
2022-09-13T19:57:31.589Z,99.90
2022-09-13T19:59:58.134Z,99.90
2022-09-13T20:02:25.083Z,99.90
2022-09-13T20:04:51.792Z,99.90
2022-09-13T20:07:18.341Z,99.90
2022-09-13T20:09:46.911Z,99.90
2022-09-13T20:12:13.440Z,99.90
2022-09-13T20:14:39.983Z,99.90
2022-09-13T20:17:07.097Z,99.90
2022-09-13T20:19:41.866Z,99.90
2022-09-13T20:22:11.362Z,99.90
2022-09-13T20:24:38.005Z,99.90
2022-09-13T20:27:04.631Z,99.90
2022-09-13T20:29:31.708Z,99.90
2022-09-13T20:32:00.005Z,99.90
2022-09-13T20:34:27.151Z,99.90
2022-09-13T20:36:53.781Z,99.90
2022-09-13T20:39:20.417Z,99.90
2022-09-13T20:41:49.173Z,99.90
2022-09-13T20:44:15.750Z,99.90
2022-09-13T20:46:43.223Z,99.90
2022-09-13T20:49:10.022Z,99.90
2022-09-13T20:51:37.199Z,99.90
2022-09-13T20:54:03.880Z,99.90
2022-09-13T20:56:30.728Z,99.90
2022-09-13T20:58:58.011Z,99.90
2022-09-13T21:01:24.997Z,99.90
2022-09-13T21:03:51.812Z,99.90
2022-09-13T21:06:19.212Z,99.90
2022-09-13T21:08:48.950Z,99.90
2022-09-13T21:11:15.555Z,99.90
2022-09-13T21:13:42.140Z,99.90
2022-09-13T21:16:08.675Z,99.90
2022-09-13T21:18:35.249Z,99.90
2022-09-13T21:21:01.843Z,99.90
2022-09-13T21:23:28.688Z,99.90
2022-09-13T21:25:55.210Z,99.90
2022-09-13T21:28:21.795Z,99.90
2022-09-13T21:30:48.454Z,99.90
2022-09-13T21:33:15.016Z,99.90
2022-09-13T21:35:41.660Z,99.90
2022-09-13T21:38:08.219Z,99.90
2022-09-13T21:40:34.915Z,99.90
2022-09-13T21:43:01.565Z,99.90
2022-09-13T21:45:28.142Z,99.90
2022-09-13T21:47:54.684Z,99.90
2022-09-13T21:50:21.357Z,99.90
2022-09-13T21:52:47.911Z,99.90
2022-09-13T21:55:14.462Z,99.90
2022-09-13T21:57:41.039Z,99.90
2022-09-13T22:00:09.089Z,99.90
2022-09-13T22:02:35.712Z,99.90
2022-09-13T22:05:02.349Z,99.90
2022-09-13T22:07:29.002Z,99.90
2022-09-13T22:09:55.740Z,99.90
2022-09-13T22:12:23.950Z,99.90
2022-09-13T22:14:50.898Z,99.90
2022-09-13T22:17:17.563Z,99.90
2022-09-13T22:19:44.100Z,99.90
2022-09-13T22:22:10.622Z,99.90
2022-09-13T22:24:37.136Z,99.90
2022-09-13T22:27:03.685Z,99.90
2022-09-13T22:29:30.288Z,99.90
2022-09-13T22:31:56.894Z,99.90
2022-09-13T22:34:23.925Z,99.90
2022-09-13T22:36:50.490Z,99.90
2022-09-13T22:39:17.078Z,99.90
2022-09-13T22:41:43.632Z,99.90
2022-09-13T22:44:10.248Z,99.90
2022-09-13T22:46:36.763Z,99.90
2022-09-13T22:49:03.269Z,99.90
2022-09-13T22:51:29.781Z,99.90
2022-09-13T22:53:56.349Z,99.90
2022-09-13T22:56:23.719Z,99.90
2022-09-13T22:58:50.318Z,99.90
2022-09-13T23:01:17.215Z,99.90
2022-09-13T23:03:44.042Z,99.90
2022-09-13T23:06:10.687Z,99.90
2022-09-13T23:08:37.314Z,99.90
2022-09-13T23:11:03.840Z,99.90
2022-09-13T23:13:30.464Z,99.90
2022-09-13T23:15:56.998Z,99.90
2022-09-13T23:18:23.484Z,99.90
2022-09-13T23:20:50.052Z,99.90
2022-09-13T23:23:16.585Z,99.90
2022-09-13T23:25:43.174Z,99.90
2022-09-13T23:28:09.674Z,99.90
2022-09-13T23:30:36.201Z,99.90
2022-09-13T23:33:02.784Z,99.90
2022-09-13T23:35:29.556Z,99.90
2022-09-13T23:37:56.124Z,99.90
2022-09-13T23:40:22.778Z,99.90
2022-09-13T23:42:49.484Z,99.90
2022-09-13T23:45:16.011Z,99.90
2022-09-13T23:47:42.537Z,99.90
2022-09-13T23:50:09.074Z,99.90
2022-09-13T23:52:35.629Z,99.90
2022-09-13T23:55:04.102Z,99.90
2022-09-13T23:57:30.698Z,99.90
2022-09-13T23:59:57.233Z,99.90
